createdAt,value
2022-12-18T00:00:30.792Z,8.00
2022-12-18T00:02:59.906Z,9.83
2022-12-18T00:05:29.211Z,10.40
2022-12-18T00:07:58.275Z,4.83
2022-12-18T00:10:27.423Z,7.73
2022-12-18T00:12:56.635Z,7.90
2022-12-18T00:15:27.098Z,8.13
2022-12-18T00:17:56.201Z,7.83
2022-12-18T00:20:26.617Z,6.17
2022-12-18T00:22:56.066Z,5.97
2022-12-18T00:25:25.814Z,6.63
2022-12-18T00:27:54.950Z,7.67
2022-12-18T00:30:24.005Z,6.37
2022-12-18T00:32:54.474Z,6.63
2022-12-18T00:35:23.973Z,7.67
2022-12-18T00:37:53.050Z,9.07
2022-12-18T00:40:22.245Z,8.63
2022-12-18T00:42:59.283Z,8.57
2022-12-18T00:45:31.724Z,7.20
2022-12-18T00:48:02.230Z,6.80
2022-12-18T00:50:31.330Z,5.73
2022-12-18T00:53:03.163Z,6.10
2022-12-18T00:55:32.286Z,9.07
2022-12-18T00:58:01.403Z,7.03
2022-12-18T01:00:30.980Z,5.17
2022-12-18T01:03:01.529Z,7.00
2022-12-18T01:05:30.702Z,6.43
2022-12-18T01:07:59.822Z,5.57
2022-12-18T01:10:29.154Z,5.47
2022-12-18T01:13:00.307Z,5.97
2022-12-18T01:15:29.628Z,7.50
2022-12-18T01:17:58.784Z,6.23
2022-12-18T01:20:31.145Z,6.23
2022-12-18T01:23:00.793Z,6.87
2022-12-18T01:25:29.848Z,6.70
2022-12-18T01:27:58.873Z,5.50
2022-12-18T01:30:27.961Z,5.57
2022-12-18T01:32:57.109Z,4.83
2022-12-18T01:35:26.156Z,5.40
2022-12-18T01:37:58.311Z,5.03
2022-12-18T01:40:27.487Z,6.87
2022-12-18T01:42:57.258Z,5.53
2022-12-18T01:45:30.241Z,5.40
2022-12-18T01:48:01.794Z,9.87
2022-12-18T01:50:35.652Z,7.07
2022-12-18T01:53:12.093Z,7.90
2022-12-18T01:55:44.914Z,7.73
2022-12-18T01:58:17.484Z,5.80
2022-12-18T02:00:46.857Z,6.90
2022-12-18T02:03:16.288Z,8.53
2022-12-18T02:05:56.545Z,6.50
2022-12-18T02:08:34.071Z,6.80
2022-12-18T02:11:10.201Z,7.13
2022-12-18T02:13:48.351Z,6.53
2022-12-18T02:16:26.582Z,5.47
2022-12-18T02:19:01.246Z,4.93
2022-12-18T02:21:38.675Z,4.93
2022-12-18T02:24:22.077Z,5.83
2022-12-18T02:26:57.219Z,5.60
2022-12-18T02:29:32.002Z,5.13
2022-12-18T02:32:08.353Z,4.87
2022-12-18T02:34:40.756Z,3.73
2022-12-18T02:37:18.156Z,5.17
2022-12-18T02:39:50.776Z,6.10
2022-12-18T02:42:21.932Z,5.43
2022-12-18T02:44:53.564Z,5.23
2022-12-18T02:47:29.839Z,6.10
2022-12-18T02:50:07.260Z,6.03
2022-12-18T02:52:46.965Z,5.13
2022-12-18T02:55:28.260Z,5.60
2022-12-18T02:58:09.404Z,6.13
2022-12-18T03:00:47.363Z,4.20
2022-12-18T03:03:21.912Z,4.93
2022-12-18T03:05:55.442Z,6.60
2022-12-18T03:08:28.018Z,5.97
2022-12-18T03:11:03.966Z,4.37
2022-12-18T03:13:41.581Z,7.13
2022-12-18T03:16:16.063Z,6.67
2022-12-18T03:18:51.368Z,6.07
2022-12-18T03:21:25.015Z,5.73
2022-12-18T03:23:56.541Z,7.63
2022-12-18T03:26:31.166Z,3.73
2022-12-18T03:29:09.528Z,4.43
2022-12-18T03:31:42.462Z,3.57
2022-12-18T03:34:15.310Z,4.70
2022-12-18T03:36:48.582Z,4.53
2022-12-18T03:39:18.551Z,5.03
2022-12-18T03:42:01.015Z,5.40
2022-12-18T03:44:52.816Z,4.40
2022-12-18T03:47:29.800Z,5.07
2022-12-18T03:50:12.925Z,4.80
2022-12-18T03:52:48.462Z,5.30
2022-12-18T03:55:20.512Z,6.73
2022-12-18T03:57:55.857Z,5.03
2022-12-18T04:00:33.137Z,5.10
2022-12-18T04:03:11.138Z,4.03
2022-12-18T04:05:47.727Z,4.63
2022-12-18T04:08:17.999Z,4.17
2022-12-18T04:10:54.875Z,5.10
2022-12-18T04:13:30.128Z,4.30
2022-12-18T04:16:03.193Z,3.13
2022-12-18T04:18:32.733Z,6.10
2022-12-18T04:21:03.690Z,3.60
2022-12-18T04:23:32.815Z,4.30
2022-12-18T04:26:02.044Z,4.57
2022-12-18T04:28:56.765Z,2.83
2022-12-18T04:31:27.308Z,4.20
2022-12-18T04:33:56.429Z,3.77
2022-12-18T04:36:26.055Z,3.77
2022-12-18T04:38:55.616Z,6.40
2022-12-18T04:41:24.868Z,5.23
2022-12-18T04:43:55.803Z,5.00
2022-12-18T04:46:26.268Z,3.03
2022-12-18T04:48:55.486Z,4.67
2022-12-18T04:51:26.654Z,6.10
2022-12-18T04:53:56.287Z,4.73
2022-12-18T04:56:25.619Z,5.83
2022-12-18T04:58:54.775Z,3.60
2022-12-18T05:01:25.334Z,3.70
2022-12-18T05:03:58.638Z,3.60
2022-12-18T05:06:27.867Z,3.33
2022-12-18T05:08:57.128Z,3.90
2022-12-18T05:11:26.162Z,3.60
2022-12-18T05:13:58.397Z,4.57
2022-12-18T05:16:27.529Z,4.30
2022-12-18T05:18:58.034Z,4.00
2022-12-18T05:21:27.158Z,5.13
2022-12-18T05:23:56.296Z,4.97
2022-12-18T05:26:25.851Z,5.70
2022-12-18T05:28:54.900Z,4.10
2022-12-18T05:31:25.304Z,3.60
2022-12-18T05:33:54.942Z,4.10
2022-12-18T05:36:25.405Z,3.07
2022-12-18T05:38:54.472Z,3.33
2022-12-18T05:41:23.578Z,4.17
2022-12-18T05:43:52.626Z,4.40
2022-12-18T05:46:21.806Z,4.40
2022-12-18T05:48:51.707Z,3.37
2022-12-18T05:51:22.685Z,5.50
2022-12-18T05:53:53.143Z,4.20
2022-12-18T05:56:24.244Z,3.60
2022-12-18T05:58:54.978Z,4.07
2022-12-18T06:01:26.155Z,3.53
2022-12-18T06:03:55.855Z,3.03
2022-12-18T06:06:27.013Z,4.00
2022-12-18T06:08:58.496Z,3.77
2022-12-18T06:11:28.783Z,3.37
2022-12-18T06:14:00.260Z,4.67
2022-12-18T06:16:30.705Z,4.23
2022-12-18T06:19:00.606Z,3.07
2022-12-18T06:21:30.717Z,4.50
2022-12-18T06:24:02.693Z,5.40
2022-12-18T06:26:31.829Z,4.13
2022-12-18T06:29:01.623Z,4.07
2022-12-18T06:31:30.856Z,7.47
2022-12-18T06:34:00.077Z,2.90
2022-12-18T06:36:33.313Z,4.13
2022-12-18T06:39:03.912Z,8.43
2022-12-18T06:41:33.101Z,4.77
2022-12-18T06:44:02.229Z,9.03
2022-12-18T06:46:31.402Z,4.97
2022-12-18T06:49:00.957Z,4.30
2022-12-18T06:51:30.213Z,4.80
2022-12-18T06:53:59.603Z,3.90
2022-12-18T06:56:30.449Z,5.57
2022-12-18T06:58:59.592Z,3.77
2022-12-18T07:01:28.947Z,7.63
2022-12-18T07:03:59.475Z,4.37
2022-12-18T07:06:28.736Z,5.00
2022-12-18T07:08:58.226Z,4.27
2022-12-18T07:11:28.791Z,3.80
2022-12-18T07:13:57.860Z,6.70
2022-12-18T07:16:27.024Z,4.10
2022-12-18T07:18:57.558Z,4.50
2022-12-18T07:21:27.231Z,4.33
2022-12-18T07:23:56.400Z,3.87
2022-12-18T07:26:27.269Z,4.60
2022-12-18T07:29:00.621Z,4.37
2022-12-18T07:31:29.935Z,3.93
2022-12-18T07:33:59.023Z,3.83
2022-12-18T07:36:28.520Z,5.87
2022-12-18T07:38:58.097Z,4.93
2022-12-18T07:41:27.325Z,7.03
2022-12-18T07:43:57.751Z,3.27
2022-12-18T07:46:26.932Z,5.27
2022-12-18T07:48:56.037Z,5.90
2022-12-18T07:51:25.133Z,5.17
2022-12-18T07:53:54.300Z,5.00
2022-12-18T07:56:28.522Z,3.87
2022-12-18T07:58:59.924Z,5.43
2022-12-18T08:01:29.374Z,4.07
2022-12-18T08:03:59.324Z,5.87
2022-12-18T08:06:28.554Z,5.60
2022-12-18T08:08:58.673Z,4.57
2022-12-18T08:11:29.823Z,5.77
2022-12-18T08:14:00.636Z,7.77
2022-12-18T08:16:30.053Z,6.17
2022-12-18T08:18:59.454Z,5.77
2022-12-18T08:21:30.979Z,5.53
2022-12-18T08:24:01.690Z,6.40
2022-12-18T08:26:32.328Z,6.13
2022-12-18T08:29:03.366Z,6.43
2022-12-18T08:31:33.908Z,8.03
2022-12-18T08:34:03.177Z,7.30
2022-12-18T08:36:32.303Z,10.33
2022-12-18T08:39:01.408Z,8.80
2022-12-18T08:41:30.450Z,6.10
2022-12-18T08:44:17.748Z,6.97
2022-12-18T08:46:48.187Z,7.57
2022-12-18T08:49:17.333Z,7.97
2022-12-18T08:51:46.708Z,7.23
2022-12-18T08:54:15.785Z,8.17
2022-12-18T08:56:45.275Z,7.37
2022-12-18T08:59:19.439Z,7.93
2022-12-18T09:01:50.823Z,8.67
2022-12-18T09:04:26.565Z,11.23
2022-12-18T09:06:55.957Z,14.60
2022-12-18T09:09:25.072Z,11.73
2022-12-18T09:11:54.122Z,11.33
2022-12-18T09:14:23.185Z,9.97
2022-12-18T09:16:53.727Z,9.07
2022-12-18T09:19:22.896Z,11.60
2022-12-18T09:21:51.974Z,9.37
2022-12-18T09:24:21.140Z,9.37
2022-12-18T09:26:53.614Z,10.73
2022-12-18T09:29:26.637Z,8.07
2022-12-18T09:31:57.255Z,8.57
2022-12-18T09:34:26.545Z,8.43
2022-12-18T09:36:55.847Z,8.37
2022-12-18T09:39:25.368Z,10.33
2022-12-18T09:41:58.009Z,8.00
2022-12-18T09:44:30.115Z,9.10
2022-12-18T09:47:15.795Z,8.40
2022-12-18T09:49:46.855Z,6.63
2022-12-18T09:52:21.489Z,6.93
2022-12-18T09:54:55.700Z,6.63
2022-12-18T09:57:26.604Z,7.40
2022-12-18T10:00:00.634Z,6.43
2022-12-18T10:02:33.727Z,7.03
2022-12-18T10:05:08.344Z,7.20
2022-12-18T10:07:55.309Z,6.43
2022-12-18T10:10:34.108Z,5.93
2022-12-18T10:13:13.011Z,10.23
2022-12-18T10:15:52.837Z,7.93
2022-12-18T10:18:39.271Z,8.83
2022-12-18T10:21:15.058Z,7.10
2022-12-18T10:23:53.561Z,6.97
2022-12-18T10:26:22.867Z,7.03
2022-12-18T10:28:53.394Z,6.67
2022-12-18T10:31:25.341Z,8.47
2022-12-18T10:33:56.553Z,9.17
2022-12-18T10:36:27.828Z,9.63
2022-12-18T10:39:15.790Z,8.30
2022-12-18T10:41:45.704Z,8.03
2022-12-18T10:44:21.149Z,7.87
2022-12-18T10:46:53.571Z,7.93
2022-12-18T10:49:27.313Z,7.27
2022-12-18T10:52:09.345Z,7.77
2022-12-18T10:54:39.820Z,6.40
2022-12-18T10:57:30.612Z,5.90
2022-12-18T11:00:01.333Z,6.13
2022-12-18T11:02:36.310Z,6.70
2022-12-18T11:05:27.505Z,7.03
2022-12-18T11:07:58.286Z,4.60
2022-12-18T11:10:31.949Z,7.17
2022-12-18T11:13:19.376Z,5.63
2022-12-18T11:15:48.890Z,6.00
2022-12-18T11:18:27.008Z,4.80
2022-12-18T11:21:00.409Z,4.97
2022-12-18T11:23:30.036Z,6.13
2022-12-18T11:26:01.445Z,5.77
2022-12-18T11:28:43.237Z,5.40
2022-12-18T11:31:23.261Z,4.57
2022-12-18T11:34:27.937Z,5.03
2022-12-18T11:36:54.130Z,6.37
2022-12-18T11:39:33.034Z,10.17
2022-12-18T11:42:13.840Z,6.57
2022-12-18T11:44:52.371Z,6.87
2022-12-18T11:47:30.773Z,5.73
2022-12-18T11:50:03.738Z,6.50
2022-12-18T11:52:39.976Z,7.10
2022-12-18T11:55:16.122Z,6.30
2022-12-18T11:57:56.927Z,5.73
2022-12-18T12:00:26.402Z,5.37
2022-12-18T12:03:13.490Z,7.13
2022-12-18T12:05:52.443Z,5.53
2022-12-18T12:08:35.981Z,6.10
2022-12-18T12:11:12.545Z,6.03
2022-12-18T12:13:52.214Z,6.13
2022-12-18T12:16:27.207Z,5.53
2022-12-18T12:19:15.631Z,5.17
2022-12-18T12:21:51.067Z,5.20
2022-12-18T12:24:34.251Z,6.47
2022-12-18T12:27:14.620Z,7.37
2022-12-18T12:29:56.235Z,5.70
2022-12-18T12:32:44.410Z,5.93
2022-12-18T12:35:24.487Z,4.97
2022-12-18T12:38:06.468Z,7.50
2022-12-18T12:40:53.467Z,6.03
2022-12-18T12:43:33.888Z,5.33
2022-12-18T12:46:07.547Z,6.27
2022-12-18T12:48:45.882Z,3.93
2022-12-18T12:51:22.350Z,5.20
2022-12-18T12:53:52.832Z,5.00
2022-12-18T12:56:24.522Z,6.50
2022-12-18T12:59:04.177Z,5.10
2022-12-18T13:01:40.799Z,6.60
2022-12-18T13:04:23.230Z,5.30
2022-12-18T13:07:01.234Z,6.07
2022-12-18T13:09:34.970Z,5.13
2022-12-18T13:12:33.250Z,6.17
2022-12-18T13:15:22.406Z,5.80
2022-12-18T13:18:04.579Z,5.30
2022-12-18T13:20:37.262Z,6.27
2022-12-18T13:23:22.181Z,5.93
2022-12-18T13:25:52.782Z,7.47
2022-12-18T13:28:45.940Z,5.87
2022-12-18T13:31:16.248Z,7.13
2022-12-18T13:34:16.994Z,5.80
2022-12-18T13:36:36.485Z,8.13
2022-12-18T13:39:32.697Z,6.73
2022-12-18T13:42:56.985Z,6.53
2022-12-18T13:46:02.788Z,8.00
2022-12-18T13:48:35.327Z,5.90
2022-12-18T13:51:06.439Z,6.97
2022-12-18T13:53:40.836Z,6.53
2022-12-18T13:56:10.504Z,6.43
2022-12-18T13:58:40.163Z,7.43
2022-12-18T14:01:25.202Z,7.20
2022-12-18T14:04:09.409Z,6.67
2022-12-18T14:06:38.765Z,7.37
2022-12-18T14:09:09.537Z,7.83
2022-12-18T14:11:39.289Z,7.40
2022-12-18T14:14:15.281Z,7.03
2022-12-18T14:16:47.877Z,6.27
2022-12-18T14:19:20.174Z,7.33
2022-12-18T14:21:51.192Z,8.30
2022-12-18T14:24:22.979Z,8.30
2022-12-18T14:26:52.906Z,6.37
2022-12-18T14:29:25.462Z,7.33
2022-12-18T14:32:17.533Z,7.53
2022-12-18T14:34:48.833Z,8.10
2022-12-18T14:37:20.316Z,7.77
2022-12-18T14:40:02.210Z,7.60
2022-12-18T14:42:34.713Z,8.17
2022-12-18T14:45:41.092Z,6.87
2022-12-18T14:48:23.518Z,7.27
2022-12-18T14:51:04.328Z,7.60
2022-12-18T14:53:40.287Z,8.17
2022-12-18T14:56:18.828Z,7.37
2022-12-18T14:58:50.170Z,6.87
2022-12-18T15:01:28.915Z,8.67
2022-12-18T15:04:00.877Z,7.83
2022-12-18T15:06:33.206Z,6.50
2022-12-18T15:09:04.214Z,8.53
2022-12-18T15:11:46.183Z,7.60
2022-12-18T15:14:40.615Z,8.13
2022-12-18T15:17:19.128Z,7.77
2022-12-18T15:19:52.014Z,8.20
2022-12-18T15:22:25.066Z,8.60
2022-12-18T15:24:55.382Z,10.33
2022-12-18T15:27:36.682Z,8.90
2022-12-18T15:30:26.058Z,9.57
2022-12-18T15:33:25.701Z,8.80
2022-12-18T15:35:59.782Z,8.73
2022-12-18T15:38:29.295Z,8.37
2022-12-18T15:40:58.731Z,9.53
2022-12-18T15:43:37.941Z,9.50
2022-12-18T15:46:10.883Z,9.83
2022-12-18T15:48:43.476Z,9.17
2022-12-18T15:51:18.323Z,8.33
2022-12-18T15:53:48.240Z,10.13
2022-12-18T15:56:36.177Z,9.67
2022-12-18T15:59:09.324Z,7.83
2022-12-18T16:01:42.505Z,8.80
2022-12-18T16:04:15.286Z,8.17
2022-12-18T16:07:13.358Z,10.13
2022-12-18T16:09:33.827Z,9.17
2022-12-18T16:12:03.053Z,10.07
2022-12-18T16:14:33.563Z,11.57
2022-12-18T16:17:14.521Z,6.67
2022-12-18T16:19:45.026Z,8.50
2022-12-18T16:22:24.994Z,7.77
2022-12-18T16:24:56.392Z,9.93
2022-12-18T16:27:26.996Z,9.23
2022-12-18T16:29:56.352Z,7.60
2022-12-18T16:32:25.810Z,8.77
2022-12-18T16:35:01.292Z,8.00
2022-12-18T16:37:30.370Z,7.00
2022-12-18T16:39:59.509Z,8.90
2022-12-18T16:42:28.612Z,7.53
2022-12-18T16:44:57.671Z,9.27
2022-12-18T16:47:26.736Z,8.93
2022-12-18T16:49:57.227Z,10.47
2022-12-18T16:52:26.916Z,11.07
2022-12-18T16:54:56.253Z,7.97
2022-12-18T16:57:25.650Z,8.20
2022-12-18T16:59:57.633Z,8.03
2022-12-18T17:02:29.542Z,8.57
2022-12-18T17:05:00.621Z,8.03
2022-12-18T17:07:30.070Z,10.20
2022-12-18T17:09:59.154Z,8.07
2022-12-18T17:12:28.363Z,9.53
2022-12-18T17:14:57.633Z,9.47
2022-12-18T17:17:27.782Z,12.63
2022-12-18T17:19:56.894Z,8.90
2022-12-18T17:22:27.994Z,7.57
2022-12-18T17:24:57.147Z,9.13
2022-12-18T17:27:26.209Z,8.90
2022-12-18T17:29:56.311Z,8.57
2022-12-18T17:32:25.434Z,8.43
2022-12-18T17:34:54.496Z,9.23
2022-12-18T17:37:25.483Z,8.70
2022-12-18T17:39:56.230Z,12.03
2022-12-18T17:42:26.297Z,9.50
2022-12-18T17:44:55.443Z,8.37
2022-12-18T17:47:24.572Z,8.07
2022-12-18T17:49:53.840Z,9.13
2022-12-18T17:52:24.733Z,10.43
2022-12-18T17:54:56.073Z,8.97
2022-12-18T17:57:25.364Z,8.20
2022-12-18T17:59:56.269Z,6.07
2022-12-18T18:02:25.634Z,7.43
2022-12-18T18:04:56.186Z,9.97
2022-12-18T18:07:25.516Z,10.50
2022-12-18T18:09:56.174Z,7.87
2022-12-18T18:12:43.060Z,11.60
2022-12-18T18:15:12.923Z,8.33
2022-12-18T18:17:42.088Z,10.20
2022-12-18T18:20:11.947Z,7.73
2022-12-18T18:22:41.381Z,7.60
2022-12-18T18:25:12.373Z,6.60
2022-12-18T18:27:42.758Z,9.30
2022-12-18T18:30:16.157Z,6.80
2022-12-18T18:32:45.392Z,9.20
2022-12-18T18:35:30.943Z,6.60
2022-12-18T18:38:04.475Z,5.80
2022-12-18T18:40:35.155Z,7.07
2022-12-18T18:43:04.344Z,7.50
2022-12-18T18:45:35.512Z,7.57
2022-12-18T18:48:05.758Z,8.60
2022-12-18T18:50:35.269Z,7.33
2022-12-18T18:53:04.400Z,7.70
2022-12-18T18:55:37.523Z,6.60
2022-12-18T18:58:06.811Z,9.97
2022-12-18T19:00:36.313Z,7.27
2022-12-18T19:03:06.086Z,8.90
2022-12-18T19:05:35.706Z,6.10
2022-12-18T19:08:05.504Z,6.87
2022-12-18T19:10:40.850Z,7.77
2022-12-18T19:13:21.529Z,6.80
2022-12-18T19:15:50.923Z,8.47
2022-12-18T19:18:21.508Z,8.33
2022-12-18T19:20:59.218Z,7.67
2022-12-18T19:23:28.629Z,7.00
2022-12-18T19:26:17.000Z,9.53
2022-12-18T19:28:50.446Z,7.13
2022-12-18T19:31:25.418Z,8.63
2022-12-18T19:33:57.502Z,4.20
2022-12-18T19:36:28.901Z,9.20
2022-12-18T19:39:00.852Z,6.17
2022-12-18T19:41:32.954Z,7.07
2022-12-18T19:44:07.345Z,6.07
2022-12-18T19:46:38.277Z,6.33
2022-12-18T19:49:11.306Z,8.33
2022-12-18T19:51:43.943Z,7.93
2022-12-18T19:54:17.596Z,8.57
2022-12-18T19:56:52.805Z,8.33
2022-12-18T19:59:22.421Z,7.13
2022-12-18T20:01:53.477Z,6.03
2022-12-18T20:04:22.783Z,8.03
2022-12-18T20:06:53.393Z,9.20
2022-12-18T20:09:23.233Z,8.47
2022-12-18T20:11:54.350Z,9.87
2022-12-18T20:14:24.020Z,8.43
2022-12-18T20:16:54.375Z,7.30
2022-12-18T20:19:25.499Z,9.20
2022-12-18T20:21:55.608Z,8.77
2022-12-18T20:24:24.826Z,8.73
2022-12-18T20:26:56.497Z,8.57
2022-12-18T20:29:25.829Z,8.97
2022-12-18T20:31:55.387Z,6.63
2022-12-18T20:34:24.658Z,10.50
2022-12-18T20:36:54.692Z,9.33
2022-12-18T20:39:27.500Z,7.57
2022-12-18T20:41:58.804Z,8.23
2022-12-18T20:52:06.914Z,9.77
2022-12-18T20:55:24.776Z,8.77
2022-12-18T20:58:33.464Z,8.73
2022-12-18T21:01:28.933Z,7.87
2022-12-18T21:04:25.585Z,8.33
2022-12-18T21:07:00.476Z,8.47
2022-12-18T21:14:16.540Z,7.70
2022-12-18T21:16:54.999Z,9.23
2022-12-18T21:20:03.245Z,10.13
2022-12-18T21:22:37.808Z,7.73
2022-12-18T21:25:10.930Z,8.27
2022-12-18T21:27:43.653Z,8.90
2022-12-18T21:30:18.484Z,8.87
2022-12-18T21:32:47.914Z,8.53
2022-12-18T21:36:21.978Z,6.67
2022-12-18T21:40:16.300Z,5.57
2022-12-18T21:43:22.592Z,9.33
2022-12-18T21:45:53.354Z,4.60
2022-12-18T21:48:22.556Z,7.73
2022-12-18T21:50:51.939Z,9.37
2022-12-18T21:53:23.437Z,7.10
2022-12-18T21:55:59.405Z,9.00
2022-12-18T21:58:29.143Z,8.63
2022-12-18T22:00:59.780Z,7.60
2022-12-18T22:03:31.601Z,7.27
2022-12-18T22:06:08.927Z,7.50
2022-12-18T22:08:39.833Z,4.97
2022-12-18T22:11:14.331Z,9.50
2022-12-18T22:13:45.102Z,7.93
2022-12-18T22:16:15.706Z,9.93
2022-12-18T22:18:46.289Z,8.57
2022-12-18T22:21:28.951Z,8.10
2022-12-18T22:24:00.867Z,9.77
2022-12-18T22:26:39.255Z,7.27
2022-12-18T22:29:31.372Z,9.63
2022-12-18T22:32:03.866Z,8.43
2022-12-18T22:34:36.409Z,8.93
2022-12-18T22:37:07.056Z,6.20
2022-12-18T22:39:36.371Z,7.00
2022-12-18T22:42:06.159Z,7.33
2022-12-18T22:44:35.393Z,8.93
2022-12-18T22:47:07.328Z,8.30
2022-12-18T22:49:37.391Z,8.47
2022-12-18T22:52:07.317Z,9.47
2022-12-18T22:54:36.625Z,9.37
2022-12-18T22:57:05.913Z,8.43
2022-12-18T22:59:34.974Z,7.33
2022-12-18T23:02:05.481Z,9.73
2022-12-18T23:04:36.570Z,8.23
2022-12-18T23:07:06.455Z,10.83
2022-12-18T23:09:35.840Z,8.47
2022-12-18T23:12:05.822Z,7.63
2022-12-18T23:14:34.991Z,9.20
2022-12-18T23:17:05.427Z,6.20
2022-12-18T23:19:37.824Z,7.17
2022-12-18T23:22:11.572Z,3.40
2022-12-18T23:24:40.946Z,7.87
2022-12-18T23:27:11.887Z,8.20
2022-12-18T23:29:41.460Z,8.43
2022-12-18T23:32:11.976Z,10.23
2022-12-18T23:34:41.115Z,9.33
2022-12-18T23:37:10.494Z,7.40
2022-12-18T23:39:39.549Z,9.47
2022-12-18T23:42:09.237Z,9.83
2022-12-18T23:44:39.554Z,8.87
2022-12-18T23:47:08.636Z,6.50
2022-12-18T23:49:41.472Z,10.17
2022-12-18T23:52:10.590Z,8.27
2022-12-18T23:54:40.246Z,5.77
2022-12-18T23:57:09.348Z,6.60
2022-12-18T23:59:38.446Z,8.97
